createdAt,value
2023-01-30T00:01:33.911Z,45.08
2023-01-30T00:06:34.017Z,37.05
2023-01-30T00:09:09.218Z,45.53
2023-01-30T00:11:45.261Z,44.78
2023-01-30T00:14:16.234Z,49.20
2023-01-30T00:19:21.606Z,47.58
2023-01-30T00:21:52.427Z,49.85
2023-01-30T00:26:59.923Z,38.60
2023-01-30T00:29:28.893Z,51.40
2023-01-30T00:34:37.130Z,54.10
2023-01-30T00:37:08.449Z,53.65
2023-01-30T00:39:40.534Z,48.88
2023-01-30T00:42:28.928Z,46.40
2023-01-30T00:45:17.618Z,46.50
2023-01-30T00:47:46.237Z,46.10
2023-01-30T00:50:25.708Z,51.70
2023-01-30T00:52:53.432Z,48.15
2023-01-30T00:55:20.325Z,48.35
2023-01-30T00:57:47.038Z,46.40
2023-01-30T01:00:18.493Z,50.67
2023-01-30T01:02:52.318Z,49.17
2023-01-30T01:05:23.805Z,44.95
2023-01-30T01:07:57.369Z,47.83
2023-01-30T01:10:36.175Z,46.92
2023-01-30T01:13:11.237Z,48.78
2023-01-30T01:15:39.376Z,45.40
2023-01-30T01:18:09.434Z,51.15
2023-01-30T01:20:39.097Z,51.58
2023-01-30T01:23:09.631Z,49.05
2023-01-30T01:25:38.349Z,51.75
2023-01-30T01:28:07.217Z,52.88
2023-01-30T01:30:37.843Z,42.20
2023-01-30T01:33:05.266Z,52.45
2023-01-30T01:35:34.305Z,52.33
2023-01-30T01:38:04.097Z,52.63
2023-01-30T01:40:51.005Z,52.30
2023-01-30T01:43:24.672Z,52.17
2023-01-30T01:46:23.669Z,53.08
2023-01-30T01:48:57.749Z,51.25
2023-01-30T01:51:39.297Z,51.50
2023-01-30T01:54:20.297Z,54.60
2023-01-30T01:56:59.203Z,51.80
2023-01-30T01:59:36.854Z,52.50
2023-01-30T02:02:09.876Z,53.40
2023-01-30T02:04:59.703Z,54.80
2023-01-30T02:07:36.768Z,56.23
2023-01-30T02:10:11.885Z,53.92
2023-01-30T02:12:40.522Z,57.45
2023-01-30T02:15:09.504Z,52.42
2023-01-30T02:17:37.624Z,61.37
2023-01-30T02:20:50.191Z,41.47
2023-01-30T02:23:30.091Z,56.95
2023-01-30T02:26:03.263Z,59.22
2023-01-30T02:29:04.892Z,53.25
2023-01-30T02:31:55.472Z,56.10
2023-01-30T02:34:57.775Z,54.97
2023-01-30T02:38:08.972Z,50.80
2023-01-30T02:41:17.475Z,50.72
2023-01-30T02:44:12.620Z,49.20
2023-01-30T02:47:00.493Z,50.92
2023-01-30T02:49:50.478Z,48.83
2023-01-30T02:52:19.788Z,55.88
2023-01-30T02:54:50.522Z,52.13
2023-01-30T02:57:24.703Z,39.20
2023-01-30T03:00:00.516Z,51.38
2023-01-30T03:02:52.377Z,50.83
2023-01-30T03:08:07.892Z,48.67
2023-01-30T03:11:11.061Z,47.58
2023-01-30T03:14:05.217Z,49.67
2023-01-30T03:16:41.453Z,36.72
2023-01-30T03:19:13.408Z,48.03
2023-01-30T03:21:45.177Z,40.58
2023-01-30T03:24:24.542Z,45.47
2023-01-30T03:27:01.585Z,47.88
2023-01-30T03:29:34.913Z,38.75
2023-01-30T03:32:15.515Z,48.20
2023-01-30T03:34:43.959Z,49.33
2023-01-30T03:37:15.713Z,32.72
2023-01-30T03:39:49.333Z,49.75
2023-01-30T03:42:28.462Z,41.78
2023-01-30T03:44:56.754Z,49.13
2023-01-30T03:47:25.706Z,37.58
2023-01-30T03:49:53.679Z,46.65
2023-01-30T03:52:23.523Z,40.58
2023-01-30T03:54:51.859Z,49.05
2023-01-30T03:57:23.086Z,51.97
2023-01-30T03:59:50.406Z,52.53
2023-01-30T04:02:21.575Z,50.47
2023-01-30T04:04:57.928Z,49.47
2023-01-30T04:07:34.833Z,40.70
2023-01-30T04:10:01.809Z,47.95
2023-01-30T04:12:34.046Z,57.00
2023-01-30T04:15:04.234Z,56.00
2023-01-30T04:17:31.628Z,36.88
2023-01-30T04:20:00.191Z,53.28
2023-01-30T04:22:36.889Z,41.45
2023-01-30T04:30:16.910Z,54.28
2023-01-30T04:35:39.658Z,51.45
2023-01-30T04:38:08.137Z,40.00
2023-01-30T04:40:47.444Z,41.90
2023-01-30T04:43:14.678Z,61.08
2023-01-30T04:45:48.856Z,42.92
2023-01-30T04:48:18.417Z,45.95
2023-01-30T04:50:49.089Z,53.00
2023-01-30T04:53:26.242Z,45.28
2023-01-30T04:55:54.876Z,42.65
2023-01-30T04:58:23.945Z,49.88
2023-01-30T05:00:51.225Z,40.58
2023-01-30T05:03:17.767Z,51.20
2023-01-30T05:05:46.633Z,36.65
2023-01-30T05:08:13.486Z,37.22
2023-01-30T05:10:40.000Z,40.72
2023-01-30T05:13:06.553Z,37.28
2023-01-30T05:15:36.438Z,36.20
2023-01-30T05:18:02.987Z,36.45
2023-01-30T05:20:29.562Z,33.85
2023-01-30T05:22:56.056Z,36.92
2023-01-30T05:25:22.493Z,37.03
2023-01-30T05:27:48.885Z,37.05
2023-01-30T05:30:15.538Z,36.47
2023-01-30T05:32:43.046Z,37.67
2023-01-30T05:35:09.757Z,36.90
2023-01-30T05:37:37.805Z,35.70
2023-01-30T05:40:04.927Z,38.05
2023-01-30T05:42:31.357Z,34.45
2023-01-30T05:44:57.770Z,32.42
2023-01-30T05:47:24.220Z,37.58
2023-01-30T05:49:50.612Z,38.20
2023-01-30T05:52:17.104Z,36.80
2023-01-30T05:54:43.576Z,36.47
2023-01-30T05:57:10.003Z,39.70
2023-01-30T05:59:36.435Z,41.78
2023-01-30T06:02:02.941Z,40.72
2023-01-30T06:04:29.358Z,38.15
2023-01-30T06:06:55.799Z,37.08
2023-01-30T06:09:22.227Z,37.83
2023-01-30T06:11:48.611Z,38.33
2023-01-30T06:14:15.001Z,40.80
2023-01-30T06:16:41.526Z,38.28
2023-01-30T06:19:08.472Z,38.05
2023-01-30T06:21:34.902Z,32.30
2023-01-30T06:24:02.199Z,36.17
2023-01-30T06:26:28.622Z,32.22
2023-01-30T06:28:55.098Z,32.47
2023-01-30T06:31:21.512Z,34.00
2023-01-30T06:33:49.385Z,27.55
2023-01-30T06:36:15.857Z,30.20
2023-01-30T06:38:42.312Z,32.22
2023-01-30T06:41:08.790Z,30.38
2023-01-30T06:43:35.273Z,27.52
2023-01-30T06:46:01.770Z,30.77
2023-01-30T06:48:28.302Z,27.25
2023-01-30T06:50:54.849Z,26.50
2023-01-30T06:53:22.261Z,29.65
2023-01-30T06:55:48.725Z,32.13
2023-01-30T06:58:15.543Z,26.55
2023-01-30T07:00:43.047Z,31.20
2023-01-30T07:03:14.493Z,28.10
2023-01-30T07:05:41.920Z,27.83
2023-01-30T07:08:08.433Z,30.70
2023-01-30T07:10:35.813Z,28.95
2023-01-30T07:13:03.155Z,26.48
2023-01-30T07:15:29.792Z,27.25
2023-01-30T07:17:56.300Z,30.95
2023-01-30T07:20:22.787Z,25.45
2023-01-30T07:22:53.694Z,27.13
2023-01-30T07:25:21.247Z,26.27
2023-01-30T07:28:03.415Z,26.75
2023-01-30T07:30:32.806Z,24.70
2023-01-30T07:33:00.223Z,30.80
2023-01-30T07:35:28.831Z,20.98
2023-01-30T07:37:55.507Z,26.30
2023-01-30T07:40:22.478Z,22.13
2023-01-30T07:43:01.190Z,24.70
2023-01-30T07:45:41.961Z,24.30
2023-01-30T07:48:10.860Z,23.02
2023-01-30T07:50:37.432Z,17.45
2023-01-30T07:53:08.516Z,16.60
2023-01-30T07:55:35.101Z,20.75
2023-01-30T07:58:01.586Z,15.93
2023-01-30T08:00:28.171Z,12.80
2023-01-30T08:02:56.926Z,15.93
2023-01-30T08:05:23.431Z,17.05
2023-01-30T08:07:49.874Z,18.08
2023-01-30T08:10:17.121Z,13.60
2023-01-30T08:12:43.963Z,9.50
2023-01-30T08:15:11.059Z,12.63
2023-01-30T08:17:37.748Z,14.52
2023-01-30T08:20:04.915Z,12.60
2023-01-30T08:22:31.362Z,14.77
2023-01-30T08:24:57.925Z,16.45
2023-01-30T08:27:24.369Z,11.50
2023-01-30T08:29:50.907Z,12.30
2023-01-30T08:32:17.463Z,8.75
2023-01-30T08:34:43.860Z,10.20
2023-01-30T08:37:10.305Z,12.40
2023-01-30T08:39:37.355Z,13.55
2023-01-30T08:42:04.062Z,10.95
2023-01-30T08:44:30.483Z,9.15
2023-01-30T08:46:56.892Z,8.90
2023-01-30T08:49:23.318Z,8.57
2023-01-30T08:51:49.776Z,15.93
2023-01-30T08:54:18.657Z,16.30
2023-01-30T08:56:45.132Z,16.08
2023-01-30T08:59:11.652Z,17.33
2023-01-30T09:01:38.443Z,15.07
2023-01-30T09:04:05.180Z,8.57
2023-01-30T09:06:31.974Z,8.50
2023-01-30T09:09:00.226Z,6.63
2023-01-30T09:11:26.793Z,14.38
2023-01-30T09:13:56.049Z,8.88
2023-01-30T09:16:22.545Z,9.75
2023-01-30T09:18:49.065Z,8.73
2023-01-30T09:21:15.621Z,12.93
2023-01-30T09:23:42.263Z,13.48
2023-01-30T09:26:08.780Z,13.52
2023-01-30T09:28:35.801Z,17.02
2023-01-30T09:31:03.053Z,10.38
2023-01-30T09:33:29.688Z,8.55
2023-01-30T09:35:56.523Z,17.40
2023-01-30T09:38:23.053Z,11.27
2023-01-30T09:41:25.257Z,12.48
2023-01-30T09:44:01.035Z,11.63
2023-01-30T09:47:13.901Z,15.05
2023-01-30T09:49:56.355Z,12.20
2023-01-30T09:52:25.979Z,13.45
2023-01-30T09:54:57.055Z,12.55
2023-01-30T09:57:25.136Z,15.23
2023-01-30T09:59:54.529Z,16.08
2023-01-30T10:02:39.889Z,12.88
2023-01-30T10:05:06.855Z,7.50
2023-01-30T10:07:39.985Z,14.82
2023-01-30T10:10:34.153Z,12.45
2023-01-30T10:13:23.151Z,18.38
2023-01-30T10:15:57.053Z,13.80
2023-01-30T10:19:01.850Z,19.40
2023-01-30T10:21:47.611Z,14.00
2023-01-30T10:24:42.283Z,15.55
2023-01-30T10:27:12.230Z,10.07
2023-01-30T10:29:40.366Z,11.30
2023-01-30T10:32:14.009Z,11.55
2023-01-30T10:34:43.233Z,13.82
2023-01-30T10:37:14.487Z,12.52
2023-01-30T10:40:04.431Z,17.27
2023-01-30T10:42:41.330Z,17.65
2023-01-30T10:45:20.306Z,15.57
2023-01-30T10:48:11.170Z,28.92
2023-01-30T10:50:59.937Z,14.52
2023-01-30T10:53:33.111Z,12.50
2023-01-30T10:56:20.838Z,17.05
2023-01-30T10:59:00.331Z,13.63
2023-01-30T11:01:35.183Z,17.77
2023-01-30T11:04:15.267Z,10.23
2023-01-30T11:06:42.157Z,15.97
2023-01-30T11:09:08.851Z,10.95
2023-01-30T11:11:54.319Z,14.30
2023-01-30T11:14:21.284Z,14.10
2023-01-30T11:16:52.057Z,10.35
2023-01-30T11:19:23.696Z,19.02
2023-01-30T11:21:52.420Z,10.95
2023-01-30T11:24:30.537Z,19.00
2023-01-30T11:27:10.401Z,9.90
2023-01-30T11:29:39.628Z,11.43
2023-01-30T11:32:12.441Z,14.02
2023-01-30T11:34:39.365Z,20.52
2023-01-30T11:37:15.236Z,16.30
2023-01-30T11:39:49.608Z,13.15
2023-01-30T11:42:19.586Z,17.95
2023-01-30T11:44:46.113Z,11.60
2023-01-30T11:47:25.448Z,16.05
2023-01-30T11:51:32.008Z,12.98
2023-01-30T11:52:45.661Z,14.50
2023-01-30T11:55:15.457Z,18.83
2023-01-30T11:57:44.863Z,10.90
2023-01-30T12:00:19.525Z,14.25
2023-01-30T12:02:48.349Z,10.85
2023-01-30T12:05:25.915Z,10.82
2023-01-30T12:07:53.083Z,10.10
2023-01-30T12:10:26.523Z,11.25
2023-01-30T12:12:55.112Z,16.80
2023-01-30T12:15:25.410Z,7.88
2023-01-30T12:18:18.843Z,6.93
2023-01-30T12:20:54.549Z,9.35
2023-01-30T12:23:39.891Z,16.80
2023-01-30T12:26:55.569Z,15.13
2023-01-30T12:29:53.949Z,11.98
2023-01-30T12:32:24.962Z,13.70
2023-01-30T12:37:42.121Z,10.38
2023-01-30T12:40:35.283Z,6.97
2023-01-30T12:43:23.347Z,9.02
2023-01-30T12:45:59.727Z,10.85
2023-01-30T12:49:07.806Z,9.40
2023-01-30T12:51:50.539Z,14.95
2023-01-30T12:54:35.810Z,12.77
2023-01-30T12:57:17.394Z,8.75
2023-01-30T13:00:22.207Z,7.25
2023-01-30T13:03:10.104Z,12.00
2023-01-30T13:05:39.622Z,17.80
2023-01-30T13:08:31.028Z,13.77
2023-01-30T13:11:23.713Z,20.45
2023-01-30T13:13:54.895Z,13.05
2023-01-30T13:16:40.064Z,12.15
2023-01-30T13:19:41.152Z,11.13
2023-01-30T13:22:14.027Z,17.95
2023-01-30T13:25:19.855Z,12.52
2023-01-30T13:27:54.144Z,17.67
2023-01-30T13:30:21.351Z,11.52
2023-01-30T13:32:50.176Z,14.68
2023-01-30T13:35:34.391Z,13.25
2023-01-30T13:38:01.204Z,14.20
2023-01-30T13:40:34.458Z,20.23
2023-01-30T13:43:07.241Z,14.25
2023-01-30T13:45:36.038Z,9.70
2023-01-30T13:48:05.559Z,13.38
2023-01-30T13:51:24.479Z,14.13
2023-01-30T13:54:06.196Z,12.32
2023-01-30T13:56:43.486Z,11.70
2023-01-30T13:59:19.225Z,11.38
2023-01-30T14:02:04.102Z,16.58
2023-01-30T14:04:30.722Z,13.63
2023-01-30T14:07:10.161Z,13.35
2023-01-30T14:09:37.323Z,14.05
2023-01-30T14:12:04.296Z,10.60
2023-01-30T14:14:33.849Z,15.23
2023-01-30T14:17:13.281Z,12.02
2023-01-30T14:19:40.853Z,15.25
2023-01-30T14:22:21.091Z,13.82
2023-01-30T14:25:25.013Z,12.60
2023-01-30T14:28:14.651Z,16.40
2023-01-30T14:30:52.133Z,16.55
2023-01-30T14:33:21.652Z,13.75
2023-01-30T14:35:54.156Z,12.90
2023-01-30T14:38:21.573Z,16.98
2023-01-30T14:40:48.808Z,15.45
2023-01-30T14:43:15.288Z,11.90
2023-01-30T14:45:56.966Z,17.13
2023-01-30T14:48:26.533Z,13.30
2023-01-30T14:51:33.265Z,10.02
2023-01-30T14:54:12.932Z,12.02
2023-01-30T14:56:48.788Z,19.30
2023-01-30T14:59:28.675Z,19.83
2023-01-30T15:02:04.615Z,17.15
2023-01-30T15:04:34.003Z,17.95
2023-01-30T15:07:04.810Z,15.60
2023-01-30T15:09:31.867Z,15.10
2023-01-30T15:12:16.735Z,14.43
2023-01-30T15:14:57.318Z,18.60
2023-01-30T15:18:08.440Z,11.15
2023-01-30T15:20:47.287Z,10.45
2023-01-30T15:23:46.498Z,8.68
2023-01-30T15:26:25.597Z,11.82
2023-01-30T15:28:59.021Z,14.10
2023-01-30T15:31:26.454Z,13.10
2023-01-30T15:33:54.407Z,9.65
2023-01-30T15:36:25.068Z,13.93
2023-01-30T15:39:06.201Z,15.30
2023-01-30T15:41:40.453Z,17.30
2023-01-30T15:44:14.408Z,15.02
2023-01-30T15:47:02.117Z,14.43
2023-01-30T15:49:40.719Z,11.93
2023-01-30T15:52:14.177Z,13.68
2023-01-30T15:54:40.666Z,19.55
2023-01-30T15:57:13.272Z,14.82
2023-01-30T15:59:40.333Z,16.67
2023-01-30T16:02:21.529Z,15.73
2023-01-30T16:04:48.150Z,17.67
2023-01-30T16:07:25.006Z,11.48
2023-01-30T16:10:06.883Z,14.32
2023-01-30T16:12:34.074Z,15.52
2023-01-30T16:15:17.105Z,14.85
2023-01-30T16:17:54.182Z,13.60
2023-01-30T16:20:21.024Z,17.58
2023-01-30T16:22:48.147Z,14.05
2023-01-30T16:25:26.399Z,14.95
2023-01-30T16:27:53.720Z,19.08
2023-01-30T16:30:23.156Z,9.98
2023-01-30T16:32:51.715Z,11.00
2023-01-30T16:35:27.085Z,13.27
2023-01-30T16:37:55.914Z,17.60
2023-01-30T16:40:45.040Z,12.93
2023-01-30T16:43:14.512Z,16.52
2023-01-30T16:45:47.123Z,14.93
2023-01-30T16:48:16.713Z,15.43
2023-01-30T16:50:46.758Z,16.20
2023-01-30T16:53:18.706Z,12.67
2023-01-30T16:56:02.379Z,10.38
2023-01-30T16:58:32.572Z,15.82
2023-01-30T17:01:01.237Z,17.10
2023-01-30T17:03:33.675Z,16.10
2023-01-30T17:06:12.407Z,16.10
2023-01-30T17:08:52.164Z,12.40
2023-01-30T17:11:29.273Z,16.00
2023-01-30T17:14:14.402Z,13.40
2023-01-30T17:16:42.950Z,15.95
2023-01-30T17:19:10.149Z,21.50
2023-01-30T17:21:44.210Z,14.73
2023-01-30T17:24:14.383Z,15.73
2023-01-30T17:26:41.132Z,14.93
2023-01-30T17:29:23.134Z,14.00
2023-01-30T17:31:56.956Z,12.43
2023-01-30T17:34:24.535Z,24.00
2023-01-30T17:36:52.574Z,20.58
2023-01-30T17:39:22.388Z,16.05
2023-01-30T17:41:49.381Z,17.38
2023-01-30T17:44:16.037Z,15.43
2023-01-30T17:46:49.266Z,15.43
2023-01-30T17:49:15.747Z,22.02
2023-01-30T17:51:42.805Z,14.52
2023-01-30T17:54:10.804Z,17.48
2023-01-30T17:56:38.580Z,15.48
2023-01-30T17:59:06.991Z,19.92
2023-01-30T18:01:36.002Z,18.17
2023-01-30T18:04:02.490Z,24.48
2023-01-30T18:06:31.932Z,18.05
2023-01-30T18:09:01.076Z,16.33
2023-01-30T18:11:27.598Z,17.88
2023-01-30T18:13:54.032Z,17.10
2023-01-30T18:16:24.074Z,13.32
2023-01-30T18:18:50.652Z,25.17
2023-01-30T18:21:17.699Z,15.02
2023-01-30T18:23:44.223Z,18.48
2023-01-30T18:26:12.392Z,12.10
2023-01-30T18:28:39.627Z,22.65
2023-01-30T18:31:06.235Z,12.95
2023-01-30T18:33:36.197Z,11.70
2023-01-30T18:36:06.683Z,14.93
2023-01-30T18:38:36.049Z,16.95
2023-01-30T18:41:11.153Z,11.82
2023-01-30T18:43:37.664Z,11.95
2023-01-30T18:46:06.604Z,14.13
2023-01-30T18:48:36.615Z,12.20
2023-01-30T18:51:14.869Z,17.58
2023-01-30T18:53:42.840Z,16.85
2023-01-30T18:56:11.056Z,19.75
2023-01-30T18:58:38.094Z,15.60
2023-01-30T19:01:16.742Z,15.35
2023-01-30T19:03:43.435Z,15.60
2023-01-30T19:06:11.877Z,14.23
2023-01-30T19:08:38.565Z,18.15
2023-01-30T19:11:28.720Z,17.75
2023-01-30T19:13:55.396Z,15.53
2023-01-30T19:16:23.471Z,16.65
2023-01-30T19:18:50.411Z,15.57
2023-01-30T19:21:17.580Z,25.73
2023-01-30T19:23:44.370Z,13.00
2023-01-30T19:26:10.949Z,28.25
2023-01-30T19:28:37.995Z,15.32
2023-01-30T19:31:09.416Z,27.25
2023-01-30T19:33:36.323Z,16.85
2023-01-30T19:36:12.844Z,20.33
2023-01-30T19:38:39.630Z,21.85
2023-01-30T19:41:11.340Z,16.23
2023-01-30T19:43:38.675Z,17.65
2023-01-30T19:46:06.013Z,17.90
2023-01-30T19:48:35.779Z,20.15
2023-01-30T19:51:16.912Z,15.10
2023-01-30T19:53:44.901Z,18.20
2023-01-30T19:56:12.609Z,15.73
2023-01-30T19:58:40.360Z,23.08
2023-01-30T20:01:12.010Z,15.38
2023-01-30T20:03:39.426Z,16.90
2023-01-30T20:06:27.503Z,16.25
2023-01-30T20:08:56.376Z,19.85
2023-01-30T20:11:22.780Z,25.48
2023-01-30T20:13:50.397Z,15.05
2023-01-30T20:16:20.357Z,19.88
2023-01-30T20:18:48.580Z,18.08
2023-01-30T20:21:19.578Z,21.38
2023-01-30T20:26:16.407Z,23.02
2023-01-30T20:28:43.233Z,14.23
2023-01-30T20:31:15.705Z,16.88
2023-01-30T20:33:42.649Z,20.88
2023-01-30T20:36:11.986Z,20.92
2023-01-30T20:38:40.545Z,14.50
2023-01-30T20:41:09.354Z,16.83
2023-01-30T20:43:40.417Z,24.70
2023-01-30T20:46:17.951Z,17.65
2023-01-30T20:48:44.505Z,14.18
2023-01-30T20:51:17.049Z,23.00
2023-01-30T20:53:48.497Z,14.77
2023-01-30T20:56:15.131Z,15.20
2023-01-30T20:58:41.686Z,15.52
2023-01-30T21:01:17.603Z,11.68
2023-01-30T21:03:45.572Z,21.52
2023-01-30T21:06:12.058Z,21.52
2023-01-30T21:08:39.449Z,13.88
2023-01-30T21:11:08.289Z,24.48
2023-01-30T21:13:35.644Z,21.20
2023-01-30T21:16:07.871Z,18.20
2023-01-30T21:18:37.070Z,16.25
2023-01-30T21:21:03.893Z,17.58
2023-01-30T21:23:31.854Z,17.38
2023-01-30T21:26:06.804Z,15.35
2023-01-30T21:28:36.950Z,22.02
2023-01-30T21:31:05.928Z,22.08
2023-01-30T21:33:32.590Z,16.80
2023-01-30T21:35:59.965Z,15.18
2023-01-30T21:38:46.018Z,19.92
2023-01-30T21:41:40.190Z,20.77
2023-01-30T21:44:06.998Z,22.75
2023-01-30T21:46:39.061Z,18.75
2023-01-30T21:49:06.885Z,13.65
2023-01-30T21:51:33.597Z,14.38
2023-01-30T21:54:01.918Z,18.38
2023-01-30T21:56:28.343Z,18.60
2023-01-30T21:58:56.614Z,18.33
2023-01-30T22:01:23.101Z,18.63
2023-01-30T22:03:49.585Z,14.13
2023-01-30T22:06:16.045Z,16.15
2023-01-30T22:08:42.574Z,14.80
2023-01-30T22:11:11.341Z,18.75
2023-01-30T22:13:39.086Z,19.95
2023-01-30T22:16:13.532Z,15.00
2023-01-30T22:18:41.098Z,21.25
2023-01-30T22:21:10.820Z,13.60
2023-01-30T22:23:40.590Z,23.30
2023-01-30T22:26:07.965Z,12.27
2023-01-30T22:28:38.501Z,19.08
2023-01-30T22:31:18.658Z,22.13
2023-01-30T22:33:51.140Z,17.90
2023-01-30T22:36:18.205Z,29.45
2023-01-30T22:38:46.348Z,21.02
2023-01-30T22:41:15.676Z,14.02
2023-01-30T22:43:47.453Z,16.27
2023-01-30T22:46:14.997Z,13.43
2023-01-30T22:48:42.186Z,24.65
2023-01-30T22:51:23.124Z,16.70
2023-01-30T22:53:52.060Z,15.40
2023-01-30T22:56:21.444Z,23.60
2023-01-30T22:58:48.449Z,18.40
2023-01-30T23:01:16.517Z,20.60
2023-01-30T23:03:44.374Z,17.80
2023-01-30T23:06:12.901Z,22.02
2023-01-30T23:08:41.025Z,19.65
2023-01-30T23:11:15.418Z,22.35
2023-01-30T23:13:43.382Z,18.92
2023-01-30T23:16:10.109Z,20.08
2023-01-30T23:18:55.264Z,16.45
2023-01-30T23:21:36.118Z,21.48
2023-01-30T23:24:14.055Z,22.42
2023-01-30T23:26:45.709Z,20.50
2023-01-30T23:29:14.713Z,18.50
2023-01-30T23:31:42.040Z,18.00
2023-01-30T23:34:12.945Z,22.85
2023-01-30T23:36:40.026Z,15.93
2023-01-30T23:39:06.516Z,27.65
2023-01-30T23:41:34.385Z,24.08
2023-01-30T23:44:01.127Z,23.98
2023-01-30T23:46:30.841Z,15.93
2023-01-30T23:48:59.811Z,16.05
2023-01-30T23:51:28.538Z,17.60
2023-01-30T23:53:55.461Z,23.25
2023-01-30T23:56:23.911Z,30.88
2023-01-30T23:58:50.646Z,18.92
